KOAJ/OAJ METAR and TAF weather

Enter ICAO airport designator
Station Type Date Time Source
KOAJ METAR 2019/04/18 21:56 UTC NOAA

KOAJ 182156Z 17015G23KT 10SM FEW038 24/16 A2999 RMK AO2 SLP160 T02440161


Station Type Date Time Source
KOAJ Decoded METAR 2019/04/18 21:56 UTC NOAA

Jacksonville, Albert J Ellis Airport, NC, United States (KOAJ) 34-50N 077-37W
Apr 18, 2019 - 05:56 PM EDT / 2019.04.18 2156 UTC
Wind: from the S (170 degrees) at 17 MPH (15 KT) gusting to 26 MPH (23 KT):0
Visibility: 10 mile(s):0
Sky conditions: mostly clear
Temperature: 75.9 F (24.4 C)
Dew Point: 61.0 F (16.1 C)
Relative Humidity: 59%
Pressure (altimeter): 29.99 in. Hg (1015 hPa)
ob: KOAJ 182156Z 17015G23KT 10SM FEW038 24/16 A2999 RMK AO2 SLP160 T02440161
cycle: 22

Station Type Date Time Source
KOAJ TAF 2019/04/18 18:42 UTC NOAA

TAF KOAJ 181738Z 1818/1918 17012G21KT P6SM FEW035 SCT250
FM190400 16010G17KT P6SM BKN120
FM191000 17012G24KT P6SM VCSH BKN025
FM191500 18016G29KT 6SM -SHRA VCTS SCT025 BKN035CB
AMD LTD TO CLD VIS AND WIND

Example: see airport list